Iris Victoria — V7TS8 — position and weather

sailwx.info

Track history (hours):
 
Tides and Currents Weather Stations Pressure Air Temp Water Temp Dewpoint Dewpoint Depression Visibility Wind Speed Wind Dir Waves Ship Positions

Iris Victoria

Last reported at 2017-Sep-12 05:06 UTC. Time now 2017-Sep-21 12:43 UTC.
Position N 58°40' E 004°41'.
Warning: this ship's position is 9 days out of date.

Length 228 m; draft 13.5 m.

Type: Tanker. MMSI: 538003876.

Date/timePositionNaut miles runAvg speedWind from/ knotsBaromVisibWave heightAir tempDewpointWater temp
2017-Sep-12 05:06N 58°40' E 004°41'113.5
2017-Sep-12 05:00N 58°39' E 004°43'713.7
2017-Sep-12 04:31N 58°35' E 004°53'713.6
2017-Sep-12 04:00N 58°31' E 005°03'713.7
2017-Sep-12 03:31N 58°26' E 005°13'714.3
2017-Sep-12 03:00N 58°21' E 005°23'714.4
2017-Sep-12 02:30N 58°17' E 005°34'714.2
2017-Sep-12 02:00N 58°12' E 005°44'713.7
2017-Sep-12 01:30N 58°08' E 005°54'713.5
2017-Sep-12 01:00N 58°03' E 006°04'713.5
2017-Sep-12 00:30N 57°59' E 006°13'713.4
2017-Sep-11 23:58N 57°54' E 006°23'613.4
2017-Sep-11 23:30N 57°50' E 006°32'612.6
2017-Sep-11 23:00N 57°47' E 006°43'612.5
2017-Sep-11 22:30N 57°47' E 006°54'612.7
2017-Sep-11 22:01N 57°47' E 007°06'612.6
2017-Sep-11 21:30N 57°46' E 007°18'612.5
2017-Sep-11 21:00N 57°46' E 007°30'611.9
2017-Sep-11 20:30N 57°46' E 007°41'611.7
2017-Sep-11 20:01N 57°46' E 007°52'611.1
2017-Sep-11 19:30N 57°48' E 008°01'611.7
2017-Sep-11 19:00N 57°51' E 008°11'612.1
2017-Sep-11 18:30N 57°54' E 008°21'5211.8
2017-Sep-11 14:07N 57°54' E 009°59'311.2
2017-Sep-11 13:50N 57°54' E 010°05'511.4
2017-Sep-11 13:24N 57°54' E 010°14'411.4
2017-Sep-11 13:00N 57°54' E 010°23'511.0
2017-Sep-11 12:30N 57°54' E 010°33'611.1
2017-Sep-11 12:00N 57°51' E 010°43'612.1
2017-Sep-11 11:30N 57°46' E 010°48'611.4
2017-Sep-11 10:59N 57°41' E 010°53'511.4
2017-Sep-11 10:31N 57°38' E 011°02'612.3
2017-Sep-11 10:00N 57°35' E 011°11'612.7
2017-Sep-11 09:30N 57°31' E 011°21'612.3
2017-Sep-11 09:00N 57°26' E 011°28'713.3
2017-Sep-11 08:30N 57°20' E 011°32'713.2
2017-Sep-11 08:00N 57°13' E 011°36'713.2
2017-Sep-11 07:28N 57°07' E 011°40'10511.8
2017-Sep-10 22:34N 55°24' E 011°00'613.1
2017-Sep-10 22:07N 55°19' E 011°03'213.3
2017-Sep-10 21:59N 55°17' E 011°04'611.8
2017-Sep-10 21:30N 55°12' E 011°05'612.0
2017-Sep-10 21:01N 55°06' E 010°59'612.9
2017-Sep-10 20:31N 55°00' E 010°59'612.6
2017-Sep-10 20:01N 54°55' E 010°52'713.0
2017-Sep-10 19:30N 54°49' E 010°50'612.8
2017-Sep-10 19:01N 54°43' E 010°47'611.4
2017-Sep-10 18:31N 54°38' E 010°53'612.5
2017-Sep-10 18:01N 54°36' E 011°03'612.3
2017-Sep-10 17:30N 54°35' E 011°14'612.6
2017-Sep-10 17:01N 54°33' E 011°24'713.0
2017-Sep-10 16:30N 54°30' E 011°34'612.9
2017-Sep-10 16:00N 54°27' E 011°44'612.5
2017-Sep-10 15:31N 54°26' E 011°55'912.1
2017-Sep-10 14:47N 54°27' E 012°10'911.2
2017-Sep-10 14:01N 54°35' E 012°16'5 9.4
2017-Sep-10 13:31N 54°38' E 012°21'4412.5
2017-Sep-10 09:59N 54°57' E 013°30'612.6
2017-Sep-10 09:30N 54°59' E 013°40'612.5
2017-Sep-10 09:00N 55°01' E 013°51'612.6
2017-Sep-10 08:30N 55°03' E 014°01'612.7
2017-Sep-10 08:00N 55°07' E 014°10'613.0
2017-Sep-10 07:30N 55°09' E 014°21'612.8
2017-Sep-10 07:00N 55°12' E 014°30'612.8
2017-Sep-10 06:30N 55°17' E 014°38'611.5
2017-Sep-10 06:00N 55°21' E 014°46'4 7.4
2017-Sep-10 05:30N 55°22' E 014°51'4 7.5
2017-Sep-10 05:00N 55°25' E 014°56'4 8.1
2017-Sep-10 04:30N 55°28' E 015°01'811.5
2017-Sep-10 03:48N 55°34' E 015°11'412.2
2017-Sep-10 03:30N 55°37' E 015°15'612.0
2017-Sep-10 03:01N 55°39' E 015°25'612.8
2017-Sep-10 02:31N 55°40' E 015°36'612.6
2017-Sep-10 02:01N 55°42' E 015°47'612.5
2017-Sep-10 01:31N 55°43' E 015°57'612.5
2017-Sep-10 01:00N 55°45' E 016°08'612.5
2017-Sep-10 00:31N 55°46' E 016°19'612.3
2017-Sep-10 00:00N 55°48' E 016°29'611.8
2017-Sep-09 23:30N 55°50' E 016°40'25211.4
2017-Sep-09 01:31N 59°06' E 021°33'312.7
2017-Sep-09 01:15N 59°09' E 021°37'4512.4
2017-Sep-08 21:36N 59°33' E 022°52'212.6
2017-Sep-08 21:27N 59°33' E 022°56'712.7
2017-Sep-08 20:56N 59°34' E 023°09'613.1
2017-Sep-08 20:29N 59°35' E 023°20'612.0
2017-Sep-08 20:00N 59°33' E 023°31'613.1
2017-Sep-08 19:30N 59°29' E 023°41'713.1
2017-Sep-08 19:00N 59°25' E 023°52'  
2017-Sep-04 19:28N 59°20' E 024°05'0 0.7
2017-Sep-04 19:00N 59°20' E 024°04'1 1.8
2017-Sep-04 18:30N 59°20' E 024°02'3 5.4
2017-Sep-04 18:00N 59°22' E 023°60'3 5.0
2017-Sep-04 17:28N 59°22' E 023°54'0 0.1
2017-Sep-04 16:55N 59°22' E 023°54'0 0.0
2017-Sep-04 16:28N 59°22' E 023°54'0 0.0
2017-Sep-04 15:58N 59°22' E 023°54'0 0.0
2017-Sep-04 15:28N 59°22' E 023°54'0 0.0
2017-Sep-04 14:58N 59°22' E 023°54'0 0.0
2017-Sep-04 14:28N 59°22' E 023°54'0 0.0
2017-Sep-04 13:58N 59°22' E 023°54'0 0.0
2017-Sep-04 13:28N 59°22' E 023°54'0 0.0
2017-Sep-04 12:58N 59°22' E 023°54'0 0.0
2017-Sep-04 12:28N 59°22' E 023°54'0 0.0
2017-Sep-04 11:58N 59°22' E 023°54'0 0.0
2017-Sep-04 11:28N 59°22' E 023°54'0 0.0
2017-Sep-04 10:58N 59°22' E 023°54'0 0.0
2017-Sep-04 10:28N 59°22' E 023°54'0 0.0
2017-Sep-04 09:58N 59°22' E 023°54'0 0.0
2017-Sep-04 09:28N 59°22' E 023°54'0 0.1
2017-Sep-04 08:58N 59°22' E 023°54'0 0.0
2017-Sep-04 08:28N 59°22' E 023°54'0 0.0
2017-Sep-04 07:58N 59°22' E 023°54'0 0.0
2017-Sep-04 07:28N 59°22' E 023°54'0 0.0
2017-Sep-04 06:58N 59°22' E 023°54'0 0.0
2017-Sep-04 06:28N 59°22' E 023°54'0 0.0
2017-Sep-04 05:58N 59°22' E 023°54'0 0.0
2017-Sep-04 05:28N 59°22' E 023°54'0 0.0
2017-Sep-04 04:58N 59°22' E 023°54'0 0.0
2017-Sep-04 04:28N 59°22' E 023°54'0 0.0
2017-Sep-04 03:58N 59°22' E 023°54'0 0.0
2017-Sep-04 03:28N 59°22' E 023°54'0 0.0
2017-Sep-04 02:58N 59°22' E 023°54'0 0.0
2017-Sep-04 02:28N 59°22' E 023°54'0 0.0
2017-Sep-04 01:58N 59°22' E 023°54'0 0.0
2017-Sep-04 01:28N 59°22' E 023°54'0 0.0
2017-Sep-04 00:58N 59°22' E 023°54'0 0.0
2017-Sep-04 00:28N 59°22' E 023°54'0 0.0
2017-Sep-03 23:58N 59°22' E 023°54'0 0.0
2017-Sep-03 23:28N 59°22' E 023°54'0 0.0
2017-Sep-03 22:58N 59°22' E 023°54'0 0.0
2017-Sep-03 22:28N 59°22' E 023°54'0 0.0
2017-Sep-03 21:58N 59°22' E 023°54'0 0.0
2017-Sep-03 21:28N 59°22' E 023°54'0 0.0
2017-Sep-03 20:58N 59°22' E 023°54'0 0.0
2017-Sep-03 20:28N 59°22' E 023°54'0 0.0
2017-Sep-03 19:58N 59°22' E 023°54'0 0.0
2017-Sep-03 19:28N 59°22' E 023°54'0 0.0
2017-Sep-03 18:58N 59°22' E 023°54'0 0.0
2017-Sep-03 18:28N 59°22' E 023°54'0 0.0
2017-Sep-03 17:58N 59°22' E 023°54'0 0.0
2017-Sep-03 17:28N 59°22' E 023°54'0 0.0
2017-Sep-03 16:58N 59°22' E 023°54'0 0.0
2017-Sep-03 16:28N 59°22' E 023°54'0 0.0
2017-Sep-03 15:58N 59°22' E 023°54'0 0.0
2017-Sep-03 15:28N 59°22' E 023°54'0 0.0
2017-Sep-03 14:58N 59°22' E 023°54'0 0.0
2017-Sep-03 13:58N 59°22' E 023°54'0 0.0
2017-Sep-03 13:28N 59°22' E 023°54'0 0.0
2017-Sep-03 12:58N 59°22' E 023°54'0 0.0
2017-Sep-03 12:28N 59°22' E 023°54'0 0.0
2017-Sep-03 11:58N 59°22' E 023°54'0 0.0
2017-Sep-03 11:28N 59°22' E 023°54'0 0.0
2017-Sep-03 10:58N 59°22' E 023°54'0 0.0
2017-Sep-03 10:28N 59°22' E 023°54'0 0.0
2017-Sep-03 09:58N 59°22' E 023°54'0 0.0
2017-Sep-03 09:28N 59°22' E 023°54'0 0.0
2017-Sep-03 08:58N 59°22' E 023°54'0 0.0
2017-Sep-03 08:28N 59°22' E 023°54'0 0.0
2017-Sep-03 07:58N 59°22' E 023°54'0 0.0
2017-Sep-03 07:22N 59°22' E 023°54'0 0.0
2017-Sep-03 06:58N 59°22' E 023°54'0 0.0
2017-Sep-03 06:28N 59°22' E 023°54'0 0.0
2017-Sep-03 05:58N 59°22' E 023°54'0 0.0
2017-Sep-03 05:28N 59°22' E 023°54'0 0.0
2017-Sep-03 04:58N 59°22' E 023°54'0 0.0
2017-Sep-03 04:25N 59°22' E 023°54'0 0.0
2017-Sep-03 03:58N 59°22' E 023°54'0 0.0
2017-Sep-03 03:28N 59°22' E 023°54'0 0.0
2017-Sep-03 02:58N 59°22' E 023°54'0 0.0
2017-Sep-03 02:28N 59°22' E 023°54'0 0.0
2017-Sep-03 01:58N 59°22' E 023°54'0 0.0
2017-Sep-03 01:28N 59°22' E 023°54'0 0.0
2017-Sep-03 00:58N 59°22' E 023°54'0 0.0
2017-Sep-03 00:28N 59°22' E 023°54'0 0.0
2017-Sep-02 23:58N 59°22' E 023°54'0 0.0
2017-Sep-02 23:28N 59°22' E 023°54'0 0.0
2017-Sep-02 22:58N 59°22' E 023°54'0 0.0
2017-Sep-02 22:28N 59°22' E 023°54'0 0.0
2017-Sep-02 21:58N 59°22' E 023°54'0 0.0
2017-Sep-02 21:28N 59°22' E 023°54'0 0.0
2017-Sep-02 20:58N 59°22' E 023°54'0 0.0
2017-Sep-02 20:28N 59°22' E 023°54'0 0.0
2017-Sep-02 19:58N 59°22' E 023°54'0 0.0
2017-Sep-02 19:29N 59°22' E 023°54'0 0.0
2017-Sep-02 18:58N 59°22' E 023°54'0 0.0
2017-Sep-02 18:28N 59°22' E 023°54'0 0.0
2017-Sep-02 17:58N 59°22' E 023°54'0 0.0
2017-Sep-02 17:28N 59°22' E 023°54'0 0.1
2017-Sep-02 16:58N 59°22' E 023°54'0 0.0
2017-Sep-02 16:28N 59°22' E 023°54'0 0.0
2017-Sep-02 15:58N 59°22' E 023°54'0 0.1
2017-Sep-02 15:28N 59°22' E 023°54'0 0.0
2017-Sep-02 14:55N 59°22' E 023°55'0 0.0
2017-Sep-02 14:28N 59°22' E 023°55'0 0.1
2017-Sep-02 13:58N 59°22' E 023°55'0 0.1
2017-Sep-02 13:28N 59°22' E 023°55'0 0.1
2017-Sep-02 12:58N 59°22' E 023°55'0 0.1
2017-Sep-02 12:28N 59°22' E 023°55'0 0.0
2017-Sep-02 11:58N 59°22' E 023°55'0 0.0
2017-Sep-02 11:22N 59°22' E 023°55'0 0.0
2017-Sep-02 10:58N 59°22' E 023°55'0 0.0
2017-Sep-02 10:28N 59°22' E 023°55'0 0.0
2017-Sep-02 09:58N 59°22' E 023°55'0 0.0
2017-Sep-02 09:28N 59°22' E 023°55'0 0.0
2017-Sep-02 08:58N 59°22' E 023°55'0 0.0
2017-Sep-02 08:28N 59°22' E 023°55'0 0.0
2017-Sep-02 07:58N 59°22' E 023°55'0 0.0
2017-Sep-02 07:28N 59°22' E 023°55'0 0.0
2017-Sep-02 06:58N 59°22' E 023°55'0 0.0
2017-Sep-02 06:28N 59°22' E 023°55'0 0.1
2017-Sep-02 05:58N 59°22' E 023°55'0 0.0
2017-Sep-02 05:28N 59°22' E 023°55'  
Track history (hours):
 
Tides and Currents Weather Stations Pressure Air Temp Water Temp Dewpoint Dewpoint Depression Visibility Wind Speed Wind Dir Waves Ship Positions

Iris Victoria

Last reported at 2017-Sep-12 05:06 UTC. Time now 2017-Sep-21 12:43 UTC.
Position N 58°40' E 004°41'.
Warning: this ship's position is 9 days out of date.

Length 228 m; draft 13.5 m.

Type: Tanker. MMSI: 538003876.

Date/timePositionNaut miles runAvg speedWind from/ knotsBaromVisibWave heightAir tempDewpointWater temp
2017-Sep-12 05:06N 58°40' E 004°41'113.5
2017-Sep-12 05:00N 58°39' E 004°43'713.7
2017-Sep-12 04:31N 58°35' E 004°53'713.6
2017-Sep-12 04:00N 58°31' E 005°03'713.7
2017-Sep-12 03:31N 58°26' E 005°13'714.3
2017-Sep-12 03:00N 58°21' E 005°23'714.4
2017-Sep-12 02:30N 58°17' E 005°34'714.2
2017-Sep-12 02:00N 58°12' E 005°44'713.7
2017-Sep-12 01:30N 58°08' E 005°54'713.5
2017-Sep-12 01:00N 58°03' E 006°04'713.5
2017-Sep-12 00:30N 57°59' E 006°13'713.4
2017-Sep-11 23:58N 57°54' E 006°23'613.4
2017-Sep-11 23:30N 57°50' E 006°32'612.6
2017-Sep-11 23:00N 57°47' E 006°43'612.5
2017-Sep-11 22:30N 57°47' E 006°54'612.7
2017-Sep-11 22:01N 57°47' E 007°06'612.6
2017-Sep-11 21:30N 57°46' E 007°18'612.5
2017-Sep-11 21:00N 57°46' E 007°30'611.9
2017-Sep-11 20:30N 57°46' E 007°41'611.7
2017-Sep-11 20:01N 57°46' E 007°52'611.1
2017-Sep-11 19:30N 57°48' E 008°01'611.7
2017-Sep-11 19:00N 57°51' E 008°11'612.1
2017-Sep-11 18:30N 57°54' E 008°21'5211.8
2017-Sep-11 14:07N 57°54' E 009°59'311.2
2017-Sep-11 13:50N 57°54' E 010°05'511.4
2017-Sep-11 13:24N 57°54' E 010°14'411.4
2017-Sep-11 13:00N 57°54' E 010°23'511.0
2017-Sep-11 12:30N 57°54' E 010°33'611.1
2017-Sep-11 12:00N 57°51' E 010°43'612.1
2017-Sep-11 11:30N 57°46' E 010°48'611.4
2017-Sep-11 10:59N 57°41' E 010°53'511.4
2017-Sep-11 10:31N 57°38' E 011°02'612.3
2017-Sep-11 10:00N 57°35' E 011°11'612.7
2017-Sep-11 09:30N 57°31' E 011°21'612.3
2017-Sep-11 09:00N 57°26' E 011°28'713.3
2017-Sep-11 08:30N 57°20' E 011°32'713.2
2017-Sep-11 08:00N 57°13' E 011°36'713.2
2017-Sep-11 07:28N 57°07' E 011°40'10511.8
2017-Sep-10 22:34N 55°24' E 011°00'613.1
2017-Sep-10 22:07N 55°19' E 011°03'213.3
2017-Sep-10 21:59N 55°17' E 011°04'611.8
2017-Sep-10 21:30N 55°12' E 011°05'612.0
2017-Sep-10 21:01N 55°06' E 010°59'612.9
2017-Sep-10 20:31N 55°00' E 010°59'612.6
2017-Sep-10 20:01N 54°55' E 010°52'713.0
2017-Sep-10 19:30N 54°49' E 010°50'612.8
2017-Sep-10 19:01N 54°43' E 010°47'611.4
2017-Sep-10 18:31N 54°38' E 010°53'612.5
2017-Sep-10 18:01N 54°36' E 011°03'612.3
2017-Sep-10 17:30N 54°35' E 011°14'612.6
2017-Sep-10 17:01N 54°33' E 011°24'713.0
2017-Sep-10 16:30N 54°30' E 011°34'612.9
2017-Sep-10 16:00N 54°27' E 011°44'612.5
2017-Sep-10 15:31N 54°26' E 011°55'912.1
2017-Sep-10 14:47N 54°27' E 012°10'911.2
2017-Sep-10 14:01N 54°35' E 012°16'5 9.4
2017-Sep-10 13:31N 54°38' E 012°21'4412.5
2017-Sep-10 09:59N 54°57' E 013°30'612.6
2017-Sep-10 09:30N 54°59' E 013°40'612.5
2017-Sep-10 09:00N 55°01' E 013°51'612.6
2017-Sep-10 08:30N 55°03' E 014°01'612.7
2017-Sep-10 08:00N 55°07' E 014°10'613.0
2017-Sep-10 07:30N 55°09' E 014°21'612.8
2017-Sep-10 07:00N 55°12' E 014°30'612.8
2017-Sep-10 06:30N 55°17' E 014°38'611.5
2017-Sep-10 06:00N 55°21' E 014°46'4 7.4
2017-Sep-10 05:30N 55°22' E 014°51'4 7.5
2017-Sep-10 05:00N 55°25' E 014°56'4 8.1
2017-Sep-10 04:30N 55°28' E 015°01'811.5
2017-Sep-10 03:48N 55°34' E 015°11'412.2
2017-Sep-10 03:30N 55°37' E 015°15'612.0
2017-Sep-10 03:01N 55°39' E 015°25'612.8
2017-Sep-10 02:31N 55°40' E 015°36'612.6
2017-Sep-10 02:01N 55°42' E 015°47'612.5
2017-Sep-10 01:31N 55°43' E 015°57'612.5
2017-Sep-10 01:00N 55°45' E 016°08'612.5
2017-Sep-10 00:31N 55°46' E 016°19'612.3
2017-Sep-10 00:00N 55°48' E 016°29'611.8
2017-Sep-09 23:30N 55°50' E 016°40'25211.4
2017-Sep-09 01:31N 59°06' E 021°33'312.7
2017-Sep-09 01:15N 59°09' E 021°37'4512.4
2017-Sep-08 21:36N 59°33' E 022°52'212.6
2017-Sep-08 21:27N 59°33' E 022°56'712.7
2017-Sep-08 20:56N 59°34' E 023°09'613.1
2017-Sep-08 20:29N 59°35' E 023°20'612.0
2017-Sep-08 20:00N 59°33' E 023°31'613.1
2017-Sep-08 19:30N 59°29' E 023°41'713.1
2017-Sep-08 19:00N 59°25' E 023°52'  
2017-Sep-04 19:28N 59°20' E 024°05'0 0.7
2017-Sep-04 19:00N 59°20' E 024°04'1 1.8
2017-Sep-04 18:30N 59°20' E 024°02'3 5.4
2017-Sep-04 18:00N 59°22' E 023°60'3 5.0
2017-Sep-04 17:28N 59°22' E 023°54'0 0.1
2017-Sep-04 16:55N 59°22' E 023°54'0 0.0
2017-Sep-04 16:28N 59°22' E 023°54'0 0.0
2017-Sep-04 15:58N 59°22' E 023°54'0 0.0
2017-Sep-04 15:28N 59°22' E 023°54'0 0.0
2017-Sep-04 14:58N 59°22' E 023°54'0 0.0
2017-Sep-04 14:28N 59°22' E 023°54'0 0.0
2017-Sep-04 13:58N 59°22' E 023°54'0 0.0
2017-Sep-04 13:28N 59°22' E 023°54'0 0.0
2017-Sep-04 12:58N 59°22' E 023°54'0 0.0
2017-Sep-04 12:28N 59°22' E 023°54'0 0.0
2017-Sep-04 11:58N 59°22' E 023°54'0 0.0
2017-Sep-04 11:28N 59°22' E 023°54'0 0.0
2017-Sep-04 10:58N 59°22' E 023°54'0 0.0
2017-Sep-04 10:28N 59°22' E 023°54'0 0.0
2017-Sep-04 09:58N 59°22' E 023°54'0 0.0
2017-Sep-04 09:28N 59°22' E 023°54'0 0.1
2017-Sep-04 08:58N 59°22' E 023°54'0 0.0
2017-Sep-04 08:28N 59°22' E 023°54'0 0.0
2017-Sep-04 07:58N 59°22' E 023°54'0 0.0
2017-Sep-04 07:28N 59°22' E 023°54'0 0.0
2017-Sep-04 06:58N 59°22' E 023°54'0 0.0
2017-Sep-04 06:28N 59°22' E 023°54'0 0.0
2017-Sep-04 05:58N 59°22' E 023°54'0 0.0
2017-Sep-04 05:28N 59°22' E 023°54'0 0.0
2017-Sep-04 04:58N 59°22' E 023°54'0 0.0
2017-Sep-04 04:28N 59°22' E 023°54'0 0.0
2017-Sep-04 03:58N 59°22' E 023°54'0 0.0
2017-Sep-04 03:28N 59°22' E 023°54'0 0.0
2017-Sep-04 02:58N 59°22' E 023°54'0 0.0
2017-Sep-04 02:28N 59°22' E 023°54'0 0.0
2017-Sep-04 01:58N 59°22' E 023°54'0 0.0
2017-Sep-04 01:28N 59°22' E 023°54'0 0.0
2017-Sep-04 00:58N 59°22' E 023°54'0 0.0
2017-Sep-04 00:28N 59°22' E 023°54'0 0.0
2017-Sep-03 23:58N 59°22' E 023°54'0 0.0
2017-Sep-03 23:28N 59°22' E 023°54'0 0.0
2017-Sep-03 22:58N 59°22' E 023°54'0 0.0
2017-Sep-03 22:28N 59°22' E 023°54'0 0.0
2017-Sep-03 21:58N 59°22' E 023°54'0 0.0
2017-Sep-03 21:28N 59°22' E 023°54'0 0.0
2017-Sep-03 20:58N 59°22' E 023°54'0 0.0
2017-Sep-03 20:28N 59°22' E 023°54'0 0.0
2017-Sep-03 19:58N 59°22' E 023°54'0 0.0
2017-Sep-03 19:28N 59°22' E 023°54'0 0.0
2017-Sep-03 18:58N 59°22' E 023°54'0 0.0
2017-Sep-03 18:28N 59°22' E 023°54'0 0.0
2017-Sep-03 17:58N 59°22' E 023°54'0 0.0
2017-Sep-03 17:28N 59°22' E 023°54'0 0.0
2017-Sep-03 16:58N 59°22' E 023°54'0 0.0
2017-Sep-03 16:28N 59°22' E 023°54'0 0.0
2017-Sep-03 15:58N 59°22' E 023°54'0 0.0
2017-Sep-03 15:28N 59°22' E 023°54'0 0.0
2017-Sep-03 14:58N 59°22' E 023°54'0 0.0
2017-Sep-03 13:58N 59°22' E 023°54'0 0.0
2017-Sep-03 13:28N 59°22' E 023°54'0 0.0
2017-Sep-03 12:58N 59°22' E 023°54'0 0.0
2017-Sep-03 12:28N 59°22' E 023°54'0 0.0
2017-Sep-03 11:58N 59°22' E 023°54'0 0.0
2017-Sep-03 11:28N 59°22' E 023°54'0 0.0
2017-Sep-03 10:58N 59°22' E 023°54'0 0.0
2017-Sep-03 10:28N 59°22' E 023°54'0 0.0
2017-Sep-03 09:58N 59°22' E 023°54'0 0.0
2017-Sep-03 09:28N 59°22' E 023°54'0 0.0
2017-Sep-03 08:58N 59°22' E 023°54'0 0.0
2017-Sep-03 08:28N 59°22' E 023°54'0 0.0
2017-Sep-03 07:58N 59°22' E 023°54'0 0.0
2017-Sep-03 07:22N 59°22' E 023°54'0 0.0
2017-Sep-03 06:58N 59°22' E 023°54'0 0.0
2017-Sep-03 06:28N 59°22' E 023°54'0 0.0
2017-Sep-03 05:58N 59°22' E 023°54'0 0.0
2017-Sep-03 05:28N 59°22' E 023°54'0 0.0
2017-Sep-03 04:58N 59°22' E 023°54'0 0.0
2017-Sep-03 04:25N 59°22' E 023°54'0 0.0
2017-Sep-03 03:58N 59°22' E 023°54'0 0.0
2017-Sep-03 03:28N 59°22' E 023°54'0 0.0
2017-Sep-03 02:58N 59°22' E 023°54'0 0.0
2017-Sep-03 02:28N 59°22' E 023°54'0 0.0
2017-Sep-03 01:58N 59°22' E 023°54'0 0.0
2017-Sep-03 01:28N 59°22' E 023°54'0 0.0
2017-Sep-03 00:58N 59°22' E 023°54'0 0.0
2017-Sep-03 00:28N 59°22' E 023°54'0 0.0
2017-Sep-02 23:58N 59°22' E 023°54'0 0.0
2017-Sep-02 23:28N 59°22' E 023°54'0 0.0
2017-Sep-02 22:58N 59°22' E 023°54'0 0.0
2017-Sep-02 22:28N 59°22' E 023°54'0 0.0
2017-Sep-02 21:58N 59°22' E 023°54'0 0.0
2017-Sep-02 21:28N 59°22' E 023°54'0 0.0
2017-Sep-02 20:58N 59°22' E 023°54'0 0.0
2017-Sep-02 20:28N 59°22' E 023°54'0 0.0
2017-Sep-02 19:58N 59°22' E 023°54'0 0.0
2017-Sep-02 19:29N 59°22' E 023°54'0 0.0
2017-Sep-02 18:58N 59°22' E 023°54'0 0.0
2017-Sep-02 18:28N 59°22' E 023°54'0 0.0
2017-Sep-02 17:58N 59°22' E 023°54'0 0.0
2017-Sep-02 17:28N 59°22' E 023°54'0 0.1
2017-Sep-02 16:58N 59°22' E 023°54'0 0.0
2017-Sep-02 16:28N 59°22' E 023°54'0 0.0
2017-Sep-02 15:58N 59°22' E 023°54'0 0.1
2017-Sep-02 15:28N 59°22' E 023°54'0 0.0
2017-Sep-02 14:55N 59°22' E 023°55'0 0.0
2017-Sep-02 14:28N 59°22' E 023°55'0 0.1
2017-Sep-02 13:58N 59°22' E 023°55'0 0.1
2017-Sep-02 13:28N 59°22' E 023°55'0 0.1
2017-Sep-02 12:58N 59°22' E 023°55'0 0.1
2017-Sep-02 12:28N 59°22' E 023°55'0 0.0
2017-Sep-02 11:58N 59°22' E 023°55'0 0.0
2017-Sep-02 11:22N 59°22' E 023°55'0 0.0
2017-Sep-02 10:58N 59°22' E 023°55'0 0.0
2017-Sep-02 10:28N 59°22' E 023°55'0 0.0
2017-Sep-02 09:58N 59°22' E 023°55'0 0.0
2017-Sep-02 09:28N 59°22' E 023°55'0 0.0
2017-Sep-02 08:58N 59°22' E 023°55'0 0.0
2017-Sep-02 08:28N 59°22' E 023°55'0 0.0
2017-Sep-02 07:58N 59°22' E 023°55'0 0.0
2017-Sep-02 07:28N 59°22' E 023°55'0 0.0
2017-Sep-02 06:58N 59°22' E 023°55'0 0.0
2017-Sep-02 06:28N 59°22' E 023°55'0 0.1
2017-Sep-02 05:58N 59°22' E 023°55'0 0.0
2017-Sep-02 05:28N 59°22' E 023°55'  

Dump ship's entire track history